Terminal Aerodrome Forecast
Issued by NWS Cleveland, OH

Home | Current Version | Previous Version | Text Only | Print | Product List | Glossary On
Versions: 1 2 3 4 5 6 7 8 9 10 11 12 13 14 15 16
000
FTUS41 KCLE 310200 AAA
TAFYNG
TAF AMD
KYNG 310222Z 3102/3124 18011KT P6SM SCT040 BKN080
     FM310600 21009KT 6SM -SHRA BKN035 OVC060
     FM310900 22007KT 4SM -SHRA BR SCT012 OVC025
     FM311300 23010KT 3SM BR VCSH OVC012
     FM311800 23010KT P6SM BKN020=

USA.gov is the U.S. government's official web portal to all federal, state and local government web resources and services.